FW7447 Weather Reports


Display with metric or nautical units.
time (UTC)temp
F
wind
direction
speed
MPH
gust
MPH
rain 1hr
in
rain 24hr
in
rain mn
in
humidity
%
barometer
mb
20240303113028 49 0 0.0 0.0 0.00 0.00 0.00 95 1021.5
20240303111523 49 0 0.0 0.0 0.00 0.00 0.00 95 1021.3
20240303110026 49 0 0.0 0.0 0.00 0.00 0.00 95 1021.2
20240303104524 49 0 0.0 0.0 0.00 0.00 0.00 95 1021.0
20240303103023 49 0 0.0 0.0 0.00 0.00 0.00 95 1020.9
20240303101522 49 0 0.0 0.0 0.00 0.00 0.00 95 1020.8
20240303100026 49 0 0.0 0.0 0.00 0.00 0.00 95 1020.5
20240303094521 49 0 0.0 0.0 0.00 0.00 0.00 95 1020.6
20240303093023 49 0 0.0 0.0 0.00 0.00 0.00 95 1020.5
20240303091527 49 0 0.0 0.0 0.00 0.00 0.00 94 1020.3
20240303090029 49 0 0.0 0.0 0.00 0.00 0.00 94 1020.4
20240303084520 49 0 0.0 0.0 0.00 0.00 0.00 94 1020.3
20240303083023 50 0 0.0 0.0 0.00 0.00 0.00 94 1020.3
20240303081525 50 0 0.0 0.0 0.00 0.00 0.00 94 1020.4
20240303080025 50 0 0.0 0.0 0.00 0.00 0.00 94 1020.3
20240303074528 50 0 0.0 0.0 0.00 0.00 0.00 94 1020.3
20240303073033 51 0 0.0 0.0 0.00 0.00 0.00 94 1020.5
20240303071524 51 0 0.0 0.0 0.00 0.00 0.00 93 1020.5
20240303070025 52 0 0.0 0.0 0.00 0.00 0.00 94 1020.7
20240303064533 53 0 0.0 0.0 0.00 0.00 0.00 94 1020.7
20240303063037 53 0 0.0 0.0 0.00 0.00 0.00 94 1020.8
20240303061539 53 212 0.0 2.0 0.00 0.00 0.00 94 1020.7
20240303060037 53 0 0.0 3.0 0.00 0.00 0.00 94 1020.8
20240303054523 53 0 0.0 4.0 0.00 0.00 0.00 94 1020.8
20240303053025 53 171 0.0 1.0 0.00 0.00 0.00 93 1020.7
20240303051525 53 0 0.0 0.0 0.00 0.00 0.00 93 1020.7
20240303050024 53 0 0.0 0.0 0.00 0.00 0.00 92 1020.6
20240303044525 53 0 0.0 0.0 0.00 0.00 0.00 91 1020.7
20240303043025 53 0 0.0 0.0 0.00 0.00 0.00 90 1020.7
20240303041533 54 0 0.0 0.0 0.00 0.00 0.00 89 1020.8
20240303040025 54 0 0.0 0.0 0.00 0.00 0.00 88 1020.7
20240303034524 55 0 0.0 0.0 0.00 0.00 0.00 88 1020.8
20240303033022 56 0 0.0 0.0 0.00 0.00 0.00 87 1020.8
20240303031525 56 0 0.0 0.0 0.00 0.00 0.00 88 1020.7
20240303030023 56 0 0.0 0.0 0.00 0.00 0.00 88 1020.7
20240303024527 56 0 0.0 0.0 0.00 0.00 0.00 88 1020.6
20240303023025 56 0 0.0 0.0 0.00 0.00 0.00 88 1020.6
20240303021527 56 0 0.0 0.0 0.00 0.00 0.00 88 1020.4
20240303020038 56 0 0.0 0.0 0.00 0.00 0.00 87 1020.2
20240303014528 56 0 0.0 0.0 0.00 0.00 0.00 86 1020.0
20240303013030 57 0 0.0 0.0 0.00 0.00 0.00 85 1019.9
20240303011524 57 0 0.0 0.0 0.00 0.00 0.00 85 1019.6
20240303010051 57 0 0.0 2.0 0.00 0.00 0.00 84 1019.6
20240303004525 58 170 0.0 4.0 0.00 0.00 0.00 84 1019.4
20240303003025 58 157 1.0 5.0 0.00 0.00 0.00 83 1019.3
20240303001527 58 169 1.0 4.0 0.00 0.00 0.00 81 1019.2
20240303000024 59 0 0.0 2.0 0.00 0.00 0.00 80 1019.1
20240302234527 60 169 0.0 2.0 0.00 0.00 0.00 78 1018.9
20240302233040 61 169 0.0 4.0 0.00 0.00 0.00 76 1018.7
20240302231527 62 189 1.0 7.0 0.00 0.00 0.00 74 1018.8
20240302230025 63 174 2.0 9.0 0.00 0.00 0.00 72 1018.7
20240302224525 65 184 4.0 11.0 0.00 0.00 0.00 69 1018.5
20240302223025 66 163 3.0 10.0 0.00 0.00 0.00 68 1018.7
20240302221523 67 199 2.0 8.0 0.00 0.00 0.00 66 1018.6
20240302220025 67 206 1.0 6.0 0.00 0.00 0.00 66 1018.4
20240302214523 68 113 3.0 7.0 0.00 0.00 0.00 65 1018.3
20240302213024 68 189 3.0 8.0 0.00 0.00 0.00 65 1018.3
20240302211524 67 171 1.0 5.0 0.00 0.00 0.00 66 1018.4
20240302210025 67 0 1.0 6.0 0.00 0.00 0.00 67 1018.5
20240302204523 66 234 1.0 7.0 0.00 0.00 0.00 68 1018.4
20240302203025 65 0 1.0 5.0 0.00 0.00 0.00 68 1018.5
20240302201531 65 157 1.0 6.0 0.00 0.00 0.00 70 1018.8
20240302200026 64 188 3.0 6.0 0.00 0.00 0.00 70 1018.9
20240302194521 63 172 2.0 5.0 0.00 0.00 0.00 73 1019.0
20240302193026 62 230 2.0 7.0 0.00 0.00 0.00 73 1019.3
20240302191524 62 306 1.0 8.0 0.00 0.00 0.00 74 1019.5
20240302190025 62 162 3.0 7.0 0.00 0.00 0.00 74 1019.5
20240302184525 61 119 3.0 7.0 0.00 0.00 0.00 76 1019.7
20240302183026 59 142 4.0 7.0 0.00 0.00 0.00 80 1020.1
20240302181530 58 265 0.0 7.0 0.00 0.00 0.00 81 1020.2
20240302180027 57 215 4.0 8.0 0.00 0.00 0.00 82 1020.5
20240302174523 56 215 2.0 5.0 0.00 0.00 0.00 84 1020.7
20240302173027 55 160 2.0 6.0 0.00 0.00 0.00 85 1021.0
20240302171541 54 268 1.0 6.0 0.00 0.00 0.00 87 1021.2
20240302170032 53 151 3.0 6.0 0.00 0.00 0.00 90 1021.3
20240302164524 52 107 0.0 3.0 0.00 0.00 0.00 93 1021.6
20240302163031 51 105 0.0 3.0 0.00 0.00 0.00 95 1021.7
20240302161524 50 98 0.0 3.0 0.00 0.00 0.00 95 1021.8
20240302160025 49 98 1.0 3.0 0.00 0.00 0.00 96 1022.0
20240302154528 48 0 0.0 4.0 0.00 0.00 0.00 96 1022.1
20240302153031 47 0 0.0 5.0 0.00 0.00 0.00 97 1022.1
20240302151531 47 65 1.0 5.0 0.00 0.00 0.00 97 1021.9
20240302150023 46 0 0.0 3.0 0.00 0.00 0.00 97 1022.0
20240302144545 46 99 1.0 6.0 0.00 0.00 0.00 97 1021.9
20240302143030 45 44 1.0 4.0 0.00 0.00 0.00 97 1022.0
20240302141521 45 259 1.0 3.0 0.00 0.00 0.00 97 1022.0
20240302140032 44 259 1.0 3.0 0.00 0.00 0.00 97 1022.1
20240302134530 44 259 1.0 3.0 0.00 0.00 0.00 97 1022.2
20240302133024 43 0 0.0 0.0 0.00 0.00 0.00 96 1022.4
20240302131523 43 0 0.0 0.0 0.00 0.00 0.00 96 1022.4
20240302130031 42 0 0.0 3.0 0.00 0.00 0.00 96 1022.4
20240302124530 41 0 0.0 0.0 0.00 0.00 0.00 96 1022.3
20240302123025 41 0 0.0 1.0 0.00 0.00 0.00 96 1022.2
20240302121536 41 187 1.0 4.0 0.00 0.00 0.00 96 1022.1
20240302120028 41 253 1.0 4.0 0.00 0.00 0.00 96 1022.1
20240302114537 40 257 1.0 3.0 0.00 0.00 0.00 96 1021.8